Aérodrome :
LOGIN :

S'inscrire | Disclaimer

   EN    FR    IT 

 










Légende :    VFR   VFR Marginal   IFR   IFR Intensif   IFR Très Intensif
Visi : 
Plafond : 
>= 8 km
>= 3000ft
5 à 8 km
1000 à 3000 ft
1500m à 5 km
500 à 1000 ft
800 à 1500m
200 à 500 ft
< 800m
< 200 ft
Symboles :   Orages  Brouillard  Fortes neiges  Fortes précipitations  Vent > 20 kt
SIGMETs :   Divers  Orages  Givrage  Turbulence  Onde Orograph.  Cendres Volcan.






- Altitude de l'aérodrome : 200 ft


EBBL - Klein Brogel AB

DERNIER METAR :
  • 201055Z 08004KT 9999 FEW035 16/05 Q1017 BLU BLU

METARs EXPIRÉS :
  • 201025Z 01003KT 9999 FEW027 14/05 Q1018 BLU BLU
  • 201003Z VRB02KT 8000 FEW025 15/07 Q1018 BLU BLU
  • 200955Z 06003KT 8000 FEW025 14/07 Q1018 BLU BLU TEMPO WHT
  • 200925Z VRB02KT 6000 FEW022 13/07 Q1018 WHT WHT BECMG BLU
  • 200855Z VRB02KT 5000 BR FEW020 12/08 Q1018 WHT WHT BECMG BLU
  • 200839Z VRB02KT 5000 BR FEW005 12/08 Q1018 WHT WHT BECMG BLU
  • 200833Z 02003KT 4000 BR FEW003 11/08 Q1018 GRN GRN BECMG WHT

TAF TAF EBBL
Valide du 20 à 10h jusqu'au 20 à 19h UTC


200841Z 2010/2019 VRB03KT 9999 FEW030
PROB30
TEMPO 2010/2011 6000
TEMPO 2012/2016 01005KT BKN040



MET'MAP, la Météo Aéronautique d'un coup d'oeil ! - Copyright ORBIFLY Décembre 2007 - Disclaimer

ORBIFLY MET'MAP TEAM :

Programmation & Développement : Alexandra Zaïnal
Sur une idée originale de : Baudouin d'Aumeries
Assistance à la programmation : Marc-Olivier Méhu
Soutien technique & logistique : Manuel Goepfert

Contact : metmap@orbifly.com




SOURCES & CREDITS :

   NOAA